createdAt,value
2023-03-01T00:00:29.159Z,13.25
2023-03-01T00:03:02.225Z,13.50
2023-03-01T00:05:36.287Z,13.52
2023-03-01T00:08:10.593Z,14.18
2023-03-01T00:10:43.533Z,12.38
2023-03-01T00:13:16.525Z,11.70
2023-03-01T00:15:49.920Z,11.35
2023-03-01T00:18:23.546Z,11.85
2023-03-01T00:20:58.404Z,10.23
2023-03-01T00:23:32.953Z,12.75
2023-03-01T00:26:09.165Z,12.07
2023-03-01T00:28:43.590Z,11.20
2023-03-01T00:31:19.317Z,11.88
2023-03-01T00:33:58.389Z,11.15
2023-03-01T00:36:34.312Z,11.45
2023-03-01T00:39:13.944Z,10.02
2023-03-01T00:41:47.012Z,11.03
2023-03-01T00:44:20.090Z,12.02
2023-03-01T00:46:53.040Z,10.45
2023-03-01T00:49:28.625Z,10.10
2023-03-01T00:52:02.877Z,11.40
2023-03-01T00:54:37.043Z,10.98
2023-03-01T00:57:09.909Z,11.45
2023-03-01T00:59:42.733Z,11.98
2023-03-01T01:02:15.791Z,11.60
2023-03-01T01:04:49.815Z,11.20
2023-03-01T01:07:22.672Z,11.55
2023-03-01T01:09:57.086Z,11.15
2023-03-01T01:12:30.365Z,11.80
2023-03-01T01:15:03.552Z,12.80
2023-03-01T01:17:36.396Z,11.40
2023-03-01T01:20:10.783Z,11.57
2023-03-01T01:22:43.633Z,11.35
2023-03-01T01:25:19.936Z,10.32
2023-03-01T01:27:52.892Z,11.80
2023-03-01T01:30:25.902Z,11.50
2023-03-01T01:32:58.993Z,12.18
2023-03-01T01:35:32.212Z,10.90
2023-03-01T01:38:05.110Z,10.20
2023-03-01T01:40:45.684Z,11.07
2023-03-01T01:43:24.877Z,10.55
2023-03-01T01:46:01.169Z,11.85
2023-03-01T01:48:42.413Z,10.90
2023-03-01T01:51:20.072Z,10.52
2023-03-01T01:53:58.133Z,11.00
2023-03-01T01:56:32.881Z,11.98
2023-03-01T01:59:06.290Z,11.52
2023-03-01T02:01:39.117Z,11.75
2023-03-01T02:04:12.538Z,10.45
2023-03-01T02:06:52.106Z,11.02
2023-03-01T02:09:25.970Z,10.77
2023-03-01T02:12:01.228Z,11.07
2023-03-01T02:14:34.079Z,10.15
2023-03-01T02:17:07.221Z,10.55
2023-03-01T02:19:55.803Z,12.07
2023-03-01T02:22:32.525Z,11.30
2023-03-01T02:25:15.115Z,11.77
2023-03-01T02:27:58.365Z,11.45
2023-03-01T02:30:34.306Z,10.50
2023-03-01T02:33:06.348Z,10.68
2023-03-01T02:35:41.121Z,10.40
2023-03-01T02:38:14.100Z,11.13
2023-03-01T02:40:49.071Z,11.75
2023-03-01T02:43:25.162Z,10.98
2023-03-01T02:46:05.404Z,11.07
2023-03-01T02:51:42.632Z,10.63
2023-03-01T02:54:26.070Z,10.73
2023-03-01T02:56:59.797Z,10.43
2023-03-01T02:59:40.363Z,9.65
2023-03-01T03:05:37.165Z,9.65
2023-03-01T03:08:10.562Z,11.80
2023-03-01T03:10:44.946Z,11.38
2023-03-01T03:13:18.167Z,12.30
2023-03-01T03:15:51.489Z,13.43
2023-03-01T03:18:27.722Z,13.27
2023-03-01T03:21:00.909Z,12.48
2023-03-01T03:23:33.995Z,11.88
2023-03-01T03:26:07.843Z,11.07
2023-03-01T03:28:41.042Z,10.40
2023-03-01T03:31:14.000Z,11.43
2023-03-01T03:33:48.198Z,10.93
2023-03-01T03:36:25.826Z,11.02
2023-03-01T03:38:59.090Z,11.60
2023-03-01T03:41:32.034Z,12.43
2023-03-01T03:44:04.965Z,10.38
2023-03-01T03:46:37.983Z,11.18
2023-03-01T03:49:12.277Z,10.70
2023-03-01T03:51:47.334Z,11.57
2023-03-01T03:54:20.221Z,10.82
2023-03-01T03:56:53.442Z,11.07
2023-03-01T03:59:26.518Z,10.88
2023-03-01T04:01:59.428Z,10.93
2023-03-01T04:04:34.700Z,10.10
2023-03-01T04:07:07.694Z,12.02
2023-03-01T04:09:40.584Z,10.68
2023-03-01T04:12:13.416Z,12.27
2023-03-01T04:14:47.978Z,11.15
2023-03-01T04:17:21.530Z,12.65
2023-03-01T04:19:55.641Z,13.20
2023-03-01T04:22:30.585Z,12.75
2023-03-01T04:25:07.233Z,11.32
2023-03-01T04:27:40.037Z,11.32
2023-03-01T04:30:13.759Z,11.13
2023-03-01T04:32:46.646Z,11.95
2023-03-01T04:35:21.643Z,12.30
2023-03-01T04:37:54.398Z,10.73
2023-03-01T04:40:27.634Z,11.20
2023-03-01T04:43:00.750Z,11.00
2023-03-01T04:45:35.846Z,11.30
2023-03-01T04:48:08.798Z,10.95
2023-03-01T04:50:43.299Z,12.15
2023-03-01T04:53:16.243Z,11.73
2023-03-01T04:55:49.013Z,11.55
2023-03-01T04:58:21.775Z,12.48
2023-03-01T05:00:56.632Z,12.88
2023-03-01T05:03:29.875Z,12.52
2023-03-01T05:06:04.176Z,13.32
2023-03-01T05:08:38.974Z,13.38
2023-03-01T05:11:12.794Z,15.35
2023-03-01T05:13:45.573Z,16.10
2023-03-01T05:16:18.953Z,14.48
2023-03-01T05:18:52.489Z,13.18
2023-03-01T05:21:27.461Z,13.07
2023-03-01T05:24:00.521Z,13.50
2023-03-01T05:26:33.966Z,13.57
2023-03-01T05:29:06.873Z,13.32
2023-03-01T05:31:40.586Z,13.90
2023-03-01T05:34:13.880Z,12.77
2023-03-01T05:36:48.097Z,12.18
2023-03-01T05:39:23.423Z,12.70
2023-03-01T05:41:57.860Z,12.73
2023-03-01T05:44:32.091Z,11.18
2023-03-01T05:47:05.161Z,11.85
2023-03-01T05:49:39.740Z,12.52
2023-03-01T05:52:14.216Z,13.60
2023-03-01T05:54:47.242Z,15.77
2023-03-01T05:57:20.089Z,16.98
2023-03-01T05:59:52.913Z,15.43
2023-03-01T06:02:25.916Z,14.13
2023-03-01T06:04:59.226Z,13.38
2023-03-01T06:07:33.558Z,13.68
2023-03-01T06:10:08.324Z,12.85
2023-03-01T06:12:43.237Z,13.48
2023-03-01T06:15:18.243Z,12.90
2023-03-01T06:17:51.791Z,13.85
2023-03-01T06:20:26.563Z,13.63
2023-03-01T06:23:01.795Z,13.45
2023-03-01T06:25:34.681Z,13.57
2023-03-01T06:28:07.840Z,13.50
2023-03-01T06:30:40.706Z,13.05
2023-03-01T06:33:14.161Z,13.02
2023-03-01T06:35:47.025Z,14.10
2023-03-01T06:38:21.419Z,15.55
2023-03-01T06:40:55.809Z,13.80
2023-03-01T06:43:29.052Z,13.70
2023-03-01T06:46:02.361Z,12.30
2023-03-01T06:48:35.678Z,13.68
2023-03-01T06:51:08.695Z,14.63
2023-03-01T06:53:43.322Z,14.50
2023-03-01T06:56:16.236Z,14.57
2023-03-01T06:58:49.513Z,15.00
2023-03-01T07:01:22.601Z,16.25
2023-03-01T07:03:55.831Z,16.27
2023-03-01T07:06:30.976Z,14.50
2023-03-01T07:09:05.555Z,13.35
2023-03-01T07:11:38.760Z,14.18
2023-03-01T07:14:11.685Z,13.48
2023-03-01T07:16:44.598Z,13.70
2023-03-01T07:19:17.587Z,12.13
2023-03-01T07:21:50.735Z,13.32
2023-03-01T07:24:25.116Z,13.07
2023-03-01T07:26:57.947Z,12.23
2023-03-01T07:29:31.205Z,12.45
2023-03-01T07:32:04.477Z,13.07
2023-03-01T07:34:37.469Z,13.48
2023-03-01T07:37:10.395Z,13.50
2023-03-01T07:39:44.526Z,15.57
2023-03-01T07:42:17.322Z,13.68
2023-03-01T07:44:50.171Z,12.38
2023-03-01T07:47:22.923Z,11.90
2023-03-01T07:49:55.670Z,12.93
2023-03-01T07:52:28.813Z,13.07
2023-03-01T07:55:03.025Z,14.40
2023-03-01T07:57:35.889Z,12.43
2023-03-01T08:00:12.437Z,14.30
2023-03-01T08:02:45.329Z,13.93
2023-03-01T08:05:18.803Z,12.20
2023-03-01T08:07:51.727Z,12.15
2023-03-01T08:10:26.004Z,12.05
2023-03-01T08:12:59.209Z,12.15
2023-03-01T08:15:31.987Z,13.15
2023-03-01T08:18:04.888Z,13.38
2023-03-01T08:20:37.682Z,11.57
2023-03-01T08:23:10.610Z,13.43
2023-03-01T08:25:44.930Z,13.48
2023-03-01T08:28:17.728Z,11.65
2023-03-01T08:30:50.556Z,11.45
2023-03-01T08:33:24.329Z,13.10
2023-03-01T08:36:05.161Z,12.30
2023-03-01T08:38:37.900Z,12.73
2023-03-01T08:41:12.154Z,12.77
2023-03-01T08:43:47.170Z,12.13
2023-03-01T08:46:19.934Z,13.15
2023-03-01T08:48:52.685Z,12.65
2023-03-01T08:51:27.277Z,12.95
2023-03-01T08:54:00.101Z,13.07
2023-03-01T08:56:35.208Z,13.95
2023-03-01T08:59:08.530Z,12.68
2023-03-01T09:01:44.265Z,13.52
2023-03-01T09:04:18.120Z,12.50
2023-03-01T09:06:51.149Z,14.10
2023-03-01T09:09:24.278Z,13.32
2023-03-01T09:11:58.884Z,14.73
2023-03-01T09:14:31.772Z,12.65
2023-03-01T09:17:04.639Z,13.57
2023-03-01T09:19:37.500Z,12.98
2023-03-01T09:22:10.218Z,13.10
2023-03-01T09:24:43.051Z,13.35
2023-03-01T09:27:19.698Z,13.45
2023-03-01T09:29:52.624Z,12.88
2023-03-01T09:32:25.456Z,12.52
2023-03-01T09:35:05.838Z,13.48
2023-03-01T09:40:17.290Z,12.82
2023-03-01T09:42:57.948Z,13.02
2023-03-01T09:45:37.058Z,13.32
2023-03-01T09:48:18.197Z,13.38
2023-03-01T09:50:51.322Z,14.10
2023-03-01T09:53:28.628Z,12.57
2023-03-01T09:56:07.040Z,13.80
2023-03-01T09:58:53.587Z,13.32
2023-03-01T10:01:35.683Z,12.73
2023-03-01T10:04:28.269Z,13.13
2023-03-01T10:07:20.173Z,12.43
2023-03-01T10:09:53.024Z,13.82
2023-03-01T10:12:32.919Z,14.65
2023-03-01T10:15:13.574Z,12.75
2023-03-01T10:17:52.323Z,12.73
2023-03-01T10:20:27.410Z,12.88
2023-03-01T10:23:00.308Z,13.50
2023-03-01T10:25:46.881Z,14.30
2023-03-01T10:28:26.670Z,13.02
2023-03-01T10:31:01.903Z,12.50
2023-03-01T10:33:40.601Z,14.00
2023-03-01T10:36:13.585Z,14.10
2023-03-01T10:38:53.316Z,14.02
2023-03-01T10:41:30.680Z,13.23
2023-03-01T10:44:03.832Z,12.80
2023-03-01T10:46:39.535Z,12.15
2023-03-01T10:49:17.228Z,14.25
2023-03-01T10:51:51.745Z,12.85
2023-03-01T10:54:29.047Z,12.65
2023-03-01T10:57:05.184Z,13.07
2023-03-01T10:59:40.276Z,13.93
2023-03-01T11:02:25.699Z,13.82
2023-03-01T11:05:00.954Z,13.68
2023-03-01T11:07:49.265Z,13.30
2023-03-01T11:10:25.607Z,13.35
2023-03-01T11:13:09.386Z,14.02
2023-03-01T11:15:42.606Z,13.63
2023-03-01T11:18:40.551Z,12.45
2023-03-01T11:21:18.242Z,12.25
2023-03-01T11:23:51.546Z,13.32
2023-03-01T11:26:25.439Z,12.80
2023-03-01T11:29:04.354Z,13.68
2023-03-01T11:31:40.448Z,12.85
2023-03-01T11:34:25.892Z,14.13
2023-03-01T11:37:03.734Z,12.07
2023-03-01T11:39:43.046Z,12.88
2023-03-01T11:42:21.835Z,12.93
2023-03-01T11:44:58.144Z,13.23
2023-03-01T11:47:45.163Z,13.88
2023-03-01T11:50:28.821Z,13.32
2023-03-01T11:53:23.931Z,12.00
2023-03-01T11:56:07.502Z,13.05
2023-03-01T11:59:25.348Z,12.73
2023-03-01T12:02:18.585Z,12.52
2023-03-01T12:05:15.883Z,14.38
2023-03-01T12:07:58.072Z,12.80
2023-03-01T12:10:35.829Z,13.55
2023-03-01T12:13:31.735Z,13.40
2023-03-01T12:16:38.374Z,12.93
2023-03-01T12:19:39.454Z,13.25
2023-03-01T12:22:28.047Z,12.52
2023-03-01T12:25:22.990Z,13.93
2023-03-01T12:28:14.141Z,13.98
2023-03-01T12:31:15.195Z,12.80
2023-03-01T12:33:54.788Z,12.90
2023-03-01T12:36:44.353Z,14.65
2023-03-01T12:39:33.310Z,13.17
2023-03-01T12:42:19.822Z,12.32
2023-03-01T12:45:14.695Z,12.88
2023-03-01T12:48:02.312Z,11.90
2023-03-01T12:50:42.181Z,12.88
2023-03-01T12:53:25.094Z,12.70
2023-03-01T12:56:02.666Z,14.13
2023-03-01T12:58:49.974Z,13.40
2023-03-01T13:01:33.863Z,12.85
2023-03-01T13:04:30.333Z,13.32
2023-03-01T13:07:28.304Z,11.75
2023-03-01T13:10:20.559Z,12.77
2023-03-01T13:13:02.878Z,12.55
2023-03-01T13:15:38.715Z,12.77
2023-03-01T13:18:31.800Z,12.75
2023-03-01T13:21:06.639Z,12.60
2023-03-01T13:23:41.175Z,12.35
2023-03-01T13:26:17.336Z,11.98
2023-03-01T13:28:56.978Z,12.60
2023-03-01T13:32:09.278Z,12.27
2023-03-01T13:34:47.203Z,11.88
2023-03-01T13:37:35.125Z,12.18
2023-03-01T13:40:41.747Z,12.52
2023-03-01T13:43:34.090Z,11.65
2023-03-01T13:46:13.579Z,11.95
2023-03-01T13:48:51.793Z,11.77
2023-03-01T13:51:29.908Z,12.32
2023-03-01T13:54:02.865Z,12.60
2023-03-01T13:56:38.858Z,11.90
2023-03-01T13:59:17.315Z,12.40
2023-03-01T14:01:54.857Z,12.43
2023-03-01T14:04:29.784Z,12.02
2023-03-01T14:07:19.727Z,12.88
2023-03-01T14:09:58.049Z,12.43
2023-03-01T14:12:47.045Z,11.38
2023-03-01T14:15:24.637Z,10.82
2023-03-01T14:18:06.215Z,12.18
2023-03-01T14:20:43.363Z,11.80
2023-03-01T14:23:21.542Z,11.75
2023-03-01T14:25:57.077Z,11.95
2023-03-01T14:28:34.593Z,11.75
2023-03-01T14:31:38.434Z,11.75
2023-03-01T14:34:21.662Z,11.15
2023-03-01T14:36:54.450Z,12.02
2023-03-01T14:39:28.896Z,12.32
2023-03-01T14:42:14.118Z,12.27
2023-03-01T14:44:51.079Z,11.88
2023-03-01T14:47:29.616Z,12.27
2023-03-01T14:50:06.839Z,11.77
2023-03-01T14:52:42.182Z,12.07
2023-03-01T14:55:20.320Z,11.73
2023-03-01T14:57:53.748Z,12.00
2023-03-01T15:00:29.318Z,11.82
2023-03-01T15:03:10.874Z,11.25
2023-03-01T15:05:45.455Z,10.90
2023-03-01T15:08:22.212Z,10.80
2023-03-01T15:11:03.781Z,9.90
2023-03-01T15:13:37.847Z,11.27
2023-03-01T15:16:14.427Z,10.65
2023-03-01T15:18:50.048Z,11.63
2023-03-01T15:21:26.497Z,11.82
2023-03-01T15:24:04.746Z,10.82
2023-03-01T15:26:42.377Z,10.52
2023-03-01T15:29:20.549Z,11.88
2023-03-01T15:31:58.143Z,10.93
2023-03-01T15:34:33.263Z,11.23
2023-03-01T15:37:09.666Z,11.35
2023-03-01T15:39:45.188Z,9.98
2023-03-01T15:42:39.798Z,11.00
2023-03-01T15:45:23.015Z,10.70
2023-03-01T15:47:58.800Z,10.45
2023-03-01T15:50:34.588Z,10.45
2023-03-01T15:53:12.077Z,9.68
2023-03-01T15:55:46.489Z,10.43
2023-03-01T15:58:22.848Z,10.27
2023-03-01T16:01:01.189Z,9.88
2023-03-01T16:03:34.666Z,11.30
2023-03-01T16:06:07.959Z,10.52
2023-03-01T16:08:41.489Z,10.38
2023-03-01T16:11:18.257Z,10.93
2023-03-01T16:13:52.868Z,10.15
2023-03-01T16:16:26.088Z,10.10
2023-03-01T16:18:58.960Z,10.35
2023-03-01T16:21:32.454Z,8.77
2023-03-01T16:24:06.208Z,8.88
2023-03-01T16:26:39.906Z,9.95
2023-03-01T16:29:14.221Z,9.02
2023-03-01T16:31:48.027Z,9.20
2023-03-01T16:34:22.981Z,9.02
2023-03-01T16:36:55.793Z,10.20
2023-03-01T16:39:29.002Z,9.18
2023-03-01T16:42:02.214Z,9.50
2023-03-01T16:44:36.535Z,9.32
2023-03-01T16:47:09.808Z,10.05
2023-03-01T16:49:42.741Z,8.90
2023-03-01T16:52:15.694Z,9.98
2023-03-01T16:54:48.836Z,10.68
2023-03-01T16:57:21.880Z,9.40
2023-03-01T16:59:56.303Z,10.52
2023-03-01T17:02:29.600Z,9.85
2023-03-01T17:05:02.971Z,10.00
2023-03-01T17:07:36.784Z,11.38
2023-03-01T17:10:12.214Z,10.30
2023-03-01T17:12:44.937Z,9.95
2023-03-01T17:15:19.383Z,11.98
2023-03-01T17:17:52.308Z,10.82
2023-03-01T17:20:25.140Z,11.55
2023-03-01T17:22:58.709Z,10.85
2023-03-01T17:25:31.857Z,11.05
2023-03-01T17:28:04.754Z,10.52
2023-03-01T17:30:38.999Z,11.40
2023-03-01T17:33:12.401Z,12.52
2023-03-01T17:35:47.274Z,11.27
2023-03-01T17:38:20.434Z,12.00
2023-03-01T17:40:53.372Z,12.43
2023-03-01T17:43:26.155Z,12.23
2023-03-01T17:46:00.503Z,11.50
2023-03-01T17:48:33.422Z,12.43
2023-03-01T17:51:11.281Z,12.45
2023-03-01T17:53:52.650Z,14.57
2023-03-01T17:56:25.526Z,11.60
2023-03-01T17:58:58.429Z,12.45
2023-03-01T18:01:33.807Z,13.38
2023-03-01T18:04:07.253Z,13.25
2023-03-01T18:06:41.272Z,13.40
2023-03-01T18:09:14.893Z,14.00
2023-03-01T18:11:47.980Z,14.32
2023-03-01T18:14:21.205Z,13.25
2023-03-01T18:16:55.533Z,13.77
2023-03-01T18:19:28.819Z,14.88
2023-03-01T18:22:01.692Z,14.27
2023-03-01T18:24:34.488Z,14.00
2023-03-01T18:27:07.379Z,14.85
2023-03-01T18:29:40.266Z,15.30
2023-03-01T18:32:14.466Z,15.48
2023-03-01T18:34:48.422Z,14.90
2023-03-01T18:37:21.164Z,15.00
2023-03-01T18:39:54.391Z,15.68
2023-03-01T18:42:27.323Z,14.88
2023-03-01T18:45:00.717Z,15.43
2023-03-01T18:47:35.232Z,16.30
2023-03-01T18:50:09.197Z,15.73
2023-03-01T18:52:42.024Z,15.13
2023-03-01T18:55:14.871Z,16.20
2023-03-01T18:57:48.031Z,15.15
2023-03-01T19:00:22.179Z,16.05
2023-03-01T19:02:57.565Z,16.48
2023-03-01T19:05:30.775Z,15.25
2023-03-01T19:08:03.908Z,15.68
2023-03-01T19:10:37.186Z,16.85
2023-03-01T19:13:11.167Z,16.15
2023-03-01T19:15:44.744Z,16.08
2023-03-01T19:18:19.878Z,15.02
2023-03-01T19:21:03.829Z,15.77
2023-03-01T19:23:38.482Z,16.13
2023-03-01T19:26:13.537Z,14.43
2023-03-01T19:28:46.811Z,16.42
2023-03-01T19:31:23.481Z,16.65
2023-03-01T19:34:10.361Z,16.65
2023-03-01T19:36:45.405Z,17.60
2023-03-01T19:39:18.547Z,16.17
2023-03-01T19:41:52.058Z,16.60
2023-03-01T19:44:25.151Z,14.82
2023-03-01T19:46:58.735Z,15.70
2023-03-01T19:49:33.208Z,16.30
2023-03-01T19:52:06.243Z,17.10
2023-03-01T19:54:39.100Z,16.67
2023-03-01T19:57:14.348Z,16.38
2023-03-01T19:59:47.408Z,16.08
2023-03-01T20:02:20.543Z,16.10
2023-03-01T20:04:54.779Z,16.10
2023-03-01T20:07:27.610Z,15.70
2023-03-01T20:10:00.444Z,16.15
2023-03-01T20:12:33.383Z,17.63
2023-03-01T20:15:07.362Z,15.88
2023-03-01T20:17:40.390Z,17.45
2023-03-01T20:20:16.072Z,16.63
2023-03-01T20:22:48.926Z,16.63
2023-03-01T20:25:21.960Z,16.90
2023-03-01T20:27:54.803Z,16.35
2023-03-01T20:30:28.272Z,16.00
2023-03-01T20:33:01.088Z,16.60
2023-03-01T20:35:36.167Z,16.65
2023-03-01T20:38:09.146Z,16.60
2023-03-01T20:40:42.153Z,16.77
2023-03-01T20:43:14.938Z,16.60
2023-03-01T20:45:47.735Z,15.10
2023-03-01T20:48:20.584Z,16.88
2023-03-01T20:50:56.756Z,17.55
2023-03-01T20:53:29.625Z,16.23
2023-03-01T20:56:03.609Z,16.10
2023-03-01T20:58:36.566Z,16.67
2023-03-01T21:01:11.837Z,16.67
2023-03-01T21:03:44.808Z,16.25
2023-03-01T21:06:19.055Z,17.70
2023-03-01T21:08:52.860Z,16.90
2023-03-01T21:11:26.085Z,17.40
2023-03-01T21:13:59.292Z,18.73
2023-03-01T21:16:33.421Z,16.63
2023-03-01T21:19:06.539Z,17.08
2023-03-01T21:21:40.810Z,16.15
2023-03-01T21:24:13.983Z,15.80
2023-03-01T21:26:47.010Z,16.92
2023-03-01T21:29:19.878Z,15.73
2023-03-01T21:31:52.894Z,16.63
2023-03-01T21:34:25.865Z,17.20
2023-03-01T21:37:01.522Z,17.77
2023-03-01T21:39:34.888Z,17.52
2023-03-01T21:42:07.871Z,18.48
2023-03-01T21:44:40.668Z,19.98
2023-03-01T21:47:13.466Z,18.13
2023-03-01T21:49:46.410Z,16.13
2023-03-01T21:52:20.717Z,16.73
2023-03-01T21:54:55.337Z,18.05
2023-03-01T21:57:28.618Z,18.02
2023-03-01T22:00:01.549Z,18.05
2023-03-01T22:02:34.680Z,17.50
2023-03-01T22:05:08.775Z,17.05
2023-03-01T22:07:43.218Z,18.33
2023-03-01T22:10:16.198Z,17.23
2023-03-01T22:12:50.840Z,19.83
2023-03-01T22:15:25.226Z,18.35
2023-03-01T22:17:58.821Z,17.73
2023-03-01T22:20:31.630Z,18.10
2023-03-01T22:23:05.914Z,18.50
2023-03-01T22:25:43.234Z,19.92
2023-03-01T22:28:17.242Z,18.27
2023-03-01T22:30:50.029Z,19.00
2023-03-01T22:33:23.062Z,18.00
2023-03-01T22:35:56.468Z,18.30
2023-03-01T22:38:30.917Z,17.40
2023-03-01T22:41:05.668Z,18.20
2023-03-01T22:43:39.526Z,20.00
2023-03-01T22:46:16.051Z,19.35
2023-03-01T22:48:52.566Z,18.17
2023-03-01T22:51:28.598Z,19.33
2023-03-01T22:54:06.655Z,20.23
2023-03-01T22:56:40.250Z,19.75
2023-03-01T22:59:15.616Z,20.27
2023-03-01T23:01:48.635Z,20.20
2023-03-01T23:04:23.020Z,20.30
2023-03-01T23:06:55.925Z,19.75
2023-03-01T23:09:32.688Z,19.50
2023-03-01T23:12:09.244Z,19.70
2023-03-01T23:14:42.497Z,19.05
2023-03-01T23:17:16.056Z,19.85
2023-03-01T23:19:51.627Z,17.95
2023-03-01T23:22:25.337Z,18.90
2023-03-01T23:24:59.673Z,18.48
2023-03-01T23:27:32.603Z,18.92
2023-03-01T23:30:06.448Z,18.60
2023-03-01T23:32:40.848Z,18.52
2023-03-01T23:35:14.285Z,19.02
2023-03-01T23:37:47.114Z,18.52
2023-03-01T23:40:21.729Z,18.73
2023-03-01T23:42:54.544Z,18.00
2023-03-01T23:45:27.367Z,18.23
2023-03-01T23:48:00.612Z,17.50
2023-03-01T23:50:41.678Z,18.25
2023-03-01T23:53:17.153Z,18.35
2023-03-01T23:55:55.411Z,18.17
2023-03-01T23:58:29.410Z,17.88
